<?xml version="1.0" encoding="UTF-8" standalone="no" ?>
<gpx xmlns="http://www.topografix.com/GPX/1/1" xmlns:xsi="http://www.w3.org/2001/XMLSchema-instance" xsi:schemaLocation="http://www.topografix.com/GPX/1/1 http://www.topografix.com/GPX/1/1/gpx.xsd" version="1.1" creator="VisuGPX - https://www.visugpx.com">
  <metadata>
    <name>La Bardenas Reales</name>
  </metadata>
  <trk>
    <name><![CDATA[1 - Bardenas Reales]]></name>
    <extensions>
      <line xmlns="http://www.topografix.com/GPX/gpx_style/0/2">
        <color>FF00FF</color>
        <opacity>0.5</opacity>
        <width>12</width>
      </line>
    </extensions>
    <trkseg>
      <trkpt lat="42.30496" lon="-1.41708">
        <ele>401</ele>
        <time>2013-10-27T11:15:04Z</time>
        <extensions>
          <visugpx:TrkExtension xmlns:visugpx="https://www.visugpx.com/editgpx/">
            <visugpx:node>1</visugpx:node>
            </visugpx:TrkExtension>
        </extensions>
      </trkpt>
      <trkpt lat="42.30379" lon="-1.41876">
        <ele>403.6</ele>
        <time>2013-10-27T11:17:23Z</time>
      </trkpt>
      <trkpt lat="42.30348" lon="-1.42037">
        <ele>396.8</ele>
        <time>2013-10-27T11:17:53Z</time>
      </trkpt>
      <trkpt lat="42.30267" lon="-1.42259">
        <ele>392.4</ele>
        <time>2013-10-27T11:19:11Z</time>
      </trkpt>
      <trkpt lat="42.30157" lon="-1.42686">
        <ele>378.4</ele>
        <time>2013-10-27T11:22:09Z</time>
      </trkpt>
      <trkpt lat="42.30138" lon="-1.42853">
        <ele>376.6</ele>
        <time>2013-10-27T11:22:45Z</time>
      </trkpt>
      <trkpt lat="42.30078" lon="-1.43132">
        <ele>373.1</ele>
        <time>2013-10-27T11:23:43Z</time>
      </trkpt>
      <trkpt lat="42.29999" lon="-1.43421">
        <ele>371.4</ele>
        <time>2013-10-27T11:24:45Z</time>
      </trkpt>
      <trkpt lat="42.30014" lon="-1.43517">
        <ele>371.5</ele>
        <time>2013-10-27T11:25:09Z</time>
      </trkpt>
      <trkpt lat="42.29954" lon="-1.43705">
        <ele>371.1</ele>
        <time>2013-10-27T11:25:52Z</time>
      </trkpt>
      <trkpt lat="42.29882" lon="-1.43818">
        <ele>370.9</ele>
        <time>2013-10-27T11:26:26Z</time>
      </trkpt>
      <trkpt lat="42.29678" lon="-1.44054">
        <ele>371.3</ele>
        <time>2013-10-27T11:27:42Z</time>
      </trkpt>
      <trkpt lat="42.29533" lon="-1.44158">
        <ele>370.9</ele>
        <time>2013-10-27T11:28:30Z</time>
      </trkpt>
      <trkpt lat="42.29316" lon="-1.4435">
        <ele>370.9</ele>
        <time>2013-10-27T11:29:49Z</time>
      </trkpt>
      <trkpt lat="42.2911" lon="-1.44471">
        <ele>369.4</ele>
        <time>2013-10-27T11:30:56Z</time>
      </trkpt>
      <trkpt lat="42.28894" lon="-1.44504">
        <ele>369.7</ele>
        <time>2013-10-27T11:32:02Z</time>
      </trkpt>
      <trkpt lat="42.28772" lon="-1.44583">
        <ele>370.6</ele>
        <time>2013-10-27T11:32:39Z</time>
      </trkpt>
      <trkpt lat="42.28626" lon="-1.44632">
        <ele>370.6</ele>
        <time>2013-10-27T11:34:23Z</time>
      </trkpt>
      <trkpt lat="42.28542" lon="-1.44678">
        <ele>370.2</ele>
        <time>2013-10-27T11:34:51Z</time>
      </trkpt>
      <trkpt lat="42.28283" lon="-1.44897">
        <ele>370.7</ele>
        <time>2013-10-27T11:36:15Z</time>
      </trkpt>
      <trkpt lat="42.2815" lon="-1.44969">
        <ele>372.1</ele>
        <time>2013-10-27T11:36:57Z</time>
      </trkpt>
      <trkpt lat="42.27946" lon="-1.45034">
        <ele>365.9</ele>
        <time>2013-10-27T11:37:32Z</time>
      </trkpt>
      <trkpt lat="42.27875" lon="-1.45104">
        <ele>365</ele>
        <time>2013-10-27T11:38:00Z</time>
      </trkpt>
      <trkpt lat="42.27838" lon="-1.45172">
        <ele>363.9</ele>
        <time>2013-10-27T11:38:13Z</time>
      </trkpt>
      <trkpt lat="42.27751" lon="-1.45249">
        <ele>361.9</ele>
        <time>2013-10-27T11:38:37Z</time>
      </trkpt>
      <trkpt lat="42.27572" lon="-1.45488">
        <ele>358</ele>
        <time>2013-10-27T11:40:05Z</time>
      </trkpt>
      <trkpt lat="42.27534" lon="-1.45649">
        <ele>351.9</ele>
        <time>2013-10-27T11:40:50Z</time>
      </trkpt>
      <trkpt lat="42.27557" lon="-1.45842">
        <ele>351.6</ele>
        <time>2013-10-27T11:41:30Z</time>
      </trkpt>
      <trkpt lat="42.27514" lon="-1.46039">
        <ele>345.1</ele>
        <time>2013-10-27T11:42:19Z</time>
      </trkpt>
      <trkpt lat="42.27565" lon="-1.46124">
        <ele>343.8</ele>
        <time>2013-10-27T11:42:47Z</time>
      </trkpt>
      <trkpt lat="42.27638" lon="-1.46349">
        <ele>347.3</ele>
        <time>2013-10-27T11:43:54Z</time>
      </trkpt>
      <trkpt lat="42.27655" lon="-1.46563">
        <ele>345</ele>
        <time>2013-10-27T11:44:33Z</time>
      </trkpt>
      <trkpt lat="42.2754" lon="-1.46692">
        <ele>338.7</ele>
        <time>2013-10-27T11:45:09Z</time>
      </trkpt>
      <trkpt lat="42.27493" lon="-1.46858">
        <ele>337</ele>
        <time>2013-10-27T11:45:49Z</time>
      </trkpt>
      <trkpt lat="42.27406" lon="-1.47288">
        <ele>335.4</ele>
        <time>2013-10-27T11:47:40Z</time>
      </trkpt>
      <trkpt lat="42.27294" lon="-1.47476">
        <ele>334.2</ele>
        <time>2013-10-27T11:48:31Z</time>
      </trkpt>
      <trkpt lat="42.27176" lon="-1.47622">
        <ele>329.7</ele>
        <time>2013-10-27T11:49:10Z</time>
      </trkpt>
      <trkpt lat="42.2715" lon="-1.47686">
        <ele>325.5</ele>
        <time>2013-10-27T11:49:32Z</time>
      </trkpt>
      <trkpt lat="42.27233" lon="-1.47817">
        <ele>330.5</ele>
        <time>2013-10-27T11:50:49Z</time>
      </trkpt>
      <trkpt lat="42.27267" lon="-1.47944">
        <ele>332.6</ele>
        <time>2013-10-27T11:55:08Z</time>
      </trkpt>
      <trkpt lat="42.27268" lon="-1.48043">
        <ele>332.7</ele>
        <time>2013-10-27T11:55:27Z</time>
      </trkpt>
      <trkpt lat="42.27252" lon="-1.4809">
        <ele>330.2</ele>
        <time>2013-10-27T11:55:42Z</time>
      </trkpt>
      <trkpt lat="42.27277" lon="-1.4816">
        <ele>327.8</ele>
        <time>2013-10-27T11:58:16Z</time>
      </trkpt>
      <trkpt lat="42.27241" lon="-1.48315">
        <ele>335.4</ele>
        <time>2013-10-27T11:59:22Z</time>
      </trkpt>
      <trkpt lat="42.27265" lon="-1.48507">
        <ele>337.9</ele>
        <time>2013-10-27T12:00:57Z</time>
      </trkpt>
      <trkpt lat="42.27261" lon="-1.48603">
        <ele>334.4</ele>
        <time>2013-10-27T12:01:29Z</time>
      </trkpt>
      <trkpt lat="42.27311" lon="-1.48664">
        <ele>339.2</ele>
        <time>2013-10-27T12:02:04Z</time>
      </trkpt>
      <trkpt lat="42.27309" lon="-1.48745">
        <ele>339.6</ele>
        <time>2013-10-27T12:02:37Z</time>
      </trkpt>
      <trkpt lat="42.27388" lon="-1.4899">
        <ele>341.7</ele>
        <time>2013-10-27T12:03:43Z</time>
      </trkpt>
      <trkpt lat="42.27363" lon="-1.49122">
        <ele>342.9</ele>
        <time>2013-10-27T12:04:17Z</time>
      </trkpt>
      <trkpt lat="42.2738" lon="-1.49292">
        <ele>345.1</ele>
        <time>2013-10-27T12:04:59Z</time>
      </trkpt>
      <trkpt lat="42.27376" lon="-1.494">
        <ele>349.2</ele>
        <time>2013-10-27T12:05:33Z</time>
      </trkpt>
      <trkpt lat="42.27317" lon="-1.49499">
        <ele>357.6</ele>
        <time>2013-10-27T12:07:46Z</time>
      </trkpt>
      <trkpt lat="42.27308" lon="-1.49539">
        <ele>359.8</ele>
        <time>2013-10-27T12:08:03Z</time>
      </trkpt>
      <trkpt lat="42.27312" lon="-1.49608">
        <ele>362.9</ele>
        <time>2013-10-27T12:08:33Z</time>
      </trkpt>
      <trkpt lat="42.27364" lon="-1.49757">
        <ele>365.4</ele>
        <time>2013-10-27T12:09:37Z</time>
      </trkpt>
      <trkpt lat="42.27309" lon="-1.49855">
        <ele>372.4</ele>
        <time>2013-10-27T12:10:27Z</time>
      </trkpt>
      <trkpt lat="42.27497" lon="-1.50196">
        <ele>387.5</ele>
        <time>2013-10-27T12:13:43Z</time>
      </trkpt>
      <trkpt lat="42.27508" lon="-1.50285">
        <ele>391.5</ele>
        <time>2013-10-27T12:14:22Z</time>
      </trkpt>
      <trkpt lat="42.27497" lon="-1.50342">
        <ele>395.2</ele>
        <time>2013-10-27T12:14:49Z</time>
      </trkpt>
      <trkpt lat="42.27512" lon="-1.50381">
        <ele>396.2</ele>
        <time>2013-10-27T12:15:09Z</time>
      </trkpt>
      <trkpt lat="42.27492" lon="-1.50523">
        <ele>401.5</ele>
        <time>2013-10-27T12:16:12Z</time>
      </trkpt>
      <trkpt lat="42.27465" lon="-1.50524">
        <ele>403.6</ele>
        <time>2013-10-27T12:16:28Z</time>
      </trkpt>
      <trkpt lat="42.27437" lon="-1.50487">
        <ele>406.2</ele>
        <time>2013-10-27T12:16:52Z</time>
      </trkpt>
      <trkpt lat="42.27418" lon="-1.50556">
        <ele>410.5</ele>
        <time>2013-10-27T12:17:28Z</time>
      </trkpt>
      <trkpt lat="42.27384" lon="-1.50588">
        <ele>414.2</ele>
        <time>2013-10-27T12:17:53Z</time>
      </trkpt>
      <trkpt lat="42.27319" lon="-1.50608">
        <ele>419.1</ele>
        <time>2013-10-27T12:18:33Z</time>
      </trkpt>
      <trkpt lat="42.27212" lon="-1.5059">
        <ele>425.3</ele>
        <time>2013-10-27T12:19:38Z</time>
      </trkpt>
      <trkpt lat="42.27207" lon="-1.50609">
        <ele>425.9</ele>
        <time>2013-10-27T12:19:49Z</time>
      </trkpt>
      <trkpt lat="42.27265" lon="-1.50646">
        <ele>430.1</ele>
        <time>2013-10-27T12:20:26Z</time>
      </trkpt>
      <trkpt lat="42.27396" lon="-1.50662">
        <ele>431.2</ele>
        <time>2013-10-27T12:50:08Z</time>
      </trkpt>
      <trkpt lat="42.27454" lon="-1.5074">
        <ele>430.5</ele>
        <time>2013-10-27T12:50:51Z</time>
      </trkpt>
      <trkpt lat="42.2747" lon="-1.50789">
        <ele>430.4</ele>
        <time>2013-10-27T12:52:11Z</time>
      </trkpt>
      <trkpt lat="42.2742" lon="-1.50685">
        <ele>430.7</ele>
        <time>2013-10-27T12:54:17Z</time>
      </trkpt>
      <trkpt lat="42.27454" lon="-1.50747">
        <ele>430.3</ele>
        <time>2013-10-27T12:55:32Z</time>
      </trkpt>
      <trkpt lat="42.27534" lon="-1.50981">
        <ele>426.7</ele>
        <time>2013-10-27T12:56:29Z</time>
      </trkpt>
      <trkpt lat="42.27641" lon="-1.51346">
        <ele>426.5</ele>
        <time>2013-10-27T12:57:36Z</time>
      </trkpt>
      <trkpt lat="42.27847" lon="-1.51704">
        <ele>425.6</ele>
        <time>2013-10-27T12:59:04Z</time>
      </trkpt>
      <trkpt lat="42.28088" lon="-1.52234">
        <ele>430.1</ele>
        <time>2013-10-27T13:01:44Z</time>
      </trkpt>
      <trkpt lat="42.28156" lon="-1.52357">
        <ele>429.6</ele>
        <time>2013-10-27T13:02:21Z</time>
      </trkpt>
      <trkpt lat="42.28321" lon="-1.52435">
        <ele>426.2</ele>
        <time>2013-10-27T13:03:17Z</time>
      </trkpt>
      <trkpt lat="42.28434" lon="-1.52513">
        <ele>423.2</ele>
        <time>2013-10-27T13:03:48Z</time>
      </trkpt>
      <trkpt lat="42.2854" lon="-1.52497">
        <ele>422.3</ele>
        <time>2013-10-27T13:04:26Z</time>
      </trkpt>
      <trkpt lat="42.28563" lon="-1.52505">
        <ele>422.5</ele>
        <time>2013-10-27T13:04:34Z</time>
      </trkpt>
      <trkpt lat="42.28877" lon="-1.52859">
        <ele>421.7</ele>
        <time>2013-10-27T13:07:08Z</time>
      </trkpt>
      <trkpt lat="42.2898" lon="-1.52873">
        <ele>422.5</ele>
        <time>2013-10-27T13:07:46Z</time>
      </trkpt>
      <trkpt lat="42.29108" lon="-1.5293">
        <ele>423.8</ele>
        <time>2013-10-27T13:08:30Z</time>
      </trkpt>
      <trkpt lat="42.29174" lon="-1.52943">
        <ele>423.6</ele>
        <time>2013-10-27T13:08:50Z</time>
      </trkpt>
      <trkpt lat="42.29306" lon="-1.53071">
        <ele>422.6</ele>
        <time>2013-10-27T13:09:38Z</time>
      </trkpt>
      <trkpt lat="42.29393" lon="-1.53112">
        <ele>422.4</ele>
        <time>2013-10-27T13:10:04Z</time>
      </trkpt>
      <trkpt lat="42.29458" lon="-1.53167">
        <ele>419.9</ele>
        <time>2013-10-27T13:10:27Z</time>
      </trkpt>
      <trkpt lat="42.29521" lon="-1.53133">
        <ele>421.4</ele>
        <time>2013-10-27T13:10:51Z</time>
      </trkpt>
      <trkpt lat="42.29605" lon="-1.53061">
        <ele>420.4</ele>
        <time>2013-10-27T13:11:19Z</time>
      </trkpt>
      <trkpt lat="42.29784" lon="-1.52851">
        <ele>422.2</ele>
        <time>2013-10-27T13:12:28Z</time>
      </trkpt>
      <trkpt lat="42.30013" lon="-1.52698">
        <ele>425.5</ele>
        <time>2013-10-27T13:13:41Z</time>
      </trkpt>
      <trkpt lat="42.30151" lon="-1.52659">
        <ele>427</ele>
        <time>2013-10-27T13:14:23Z</time>
      </trkpt>
      <trkpt lat="42.303" lon="-1.5258">
        <ele>428.7</ele>
        <time>2013-10-27T13:15:21Z</time>
      </trkpt>
      <trkpt lat="42.3045" lon="-1.52466">
        <ele>429.8</ele>
        <time>2013-10-27T13:16:15Z</time>
      </trkpt>
      <trkpt lat="42.30533" lon="-1.52424">
        <ele>430</ele>
        <time>2013-10-27T13:16:53Z</time>
      </trkpt>
      <trkpt lat="42.30642" lon="-1.52326">
        <ele>429.7</ele>
        <time>2013-10-27T13:17:36Z</time>
      </trkpt>
      <trkpt lat="42.30746" lon="-1.52276">
        <ele>430.3</ele>
        <time>2013-10-27T13:18:08Z</time>
      </trkpt>
      <trkpt lat="42.30891" lon="-1.52161">
        <ele>430.9</ele>
        <time>2013-10-27T13:18:54Z</time>
      </trkpt>
      <trkpt lat="42.31118" lon="-1.51931">
        <ele>431.4</ele>
        <time>2013-10-27T13:20:22Z</time>
      </trkpt>
      <trkpt lat="42.31347" lon="-1.51753">
        <ele>432.2</ele>
        <time>2013-10-27T13:21:44Z</time>
      </trkpt>
      <trkpt lat="42.31418" lon="-1.51656">
        <ele>432.1</ele>
        <time>2013-10-27T13:22:12Z</time>
      </trkpt>
      <trkpt lat="42.31634" lon="-1.51455">
        <ele>433.5</ele>
        <time>2013-10-27T13:23:25Z</time>
      </trkpt>
      <trkpt lat="42.32046" lon="-1.51008">
        <ele>435.8</ele>
        <time>2013-10-27T13:25:51Z</time>
      </trkpt>
      <trkpt lat="42.32262" lon="-1.50811">
        <ele>435.7</ele>
        <time>2013-10-27T13:27:03Z</time>
      </trkpt>
      <trkpt lat="42.32422" lon="-1.5061">
        <ele>437.2</ele>
        <time>2013-10-27T13:28:09Z</time>
      </trkpt>
      <trkpt lat="42.32634" lon="-1.50403">
        <ele>438.4</ele>
        <time>2013-10-27T13:30:21Z</time>
      </trkpt>
      <trkpt lat="42.32953" lon="-1.50242">
        <ele>438.9</ele>
        <time>2013-10-27T13:32:09Z</time>
      </trkpt>
      <trkpt lat="42.33053" lon="-1.50157">
        <ele>440.2</ele>
        <time>2013-10-27T13:35:33Z</time>
      </trkpt>
      <trkpt lat="42.33183" lon="-1.50095">
        <ele>441.2</ele>
        <time>2013-10-27T13:36:10Z</time>
      </trkpt>
      <trkpt lat="42.33373" lon="-1.50047">
        <ele>441.6</ele>
        <time>2013-10-27T13:37:30Z</time>
      </trkpt>
      <trkpt lat="42.33565" lon="-1.49973">
        <ele>439.6</ele>
        <time>2013-10-27T13:38:50Z</time>
      </trkpt>
      <trkpt lat="42.33505" lon="-1.49791">
        <ele>442.8</ele>
        <time>2013-10-27T13:39:42Z</time>
      </trkpt>
      <trkpt lat="42.33265" lon="-1.49336">
        <ele>443.4</ele>
        <time>2013-10-27T13:41:53Z</time>
      </trkpt>
      <trkpt lat="42.33179" lon="-1.49138">
        <ele>443.8</ele>
        <time>2013-10-27T13:42:45Z</time>
      </trkpt>
      <trkpt lat="42.33006" lon="-1.48887">
        <ele>443.5</ele>
        <time>2013-10-27T13:44:34Z</time>
      </trkpt>
      <trkpt lat="42.32831" lon="-1.48696">
        <ele>443.4</ele>
        <time>2013-10-27T13:45:46Z</time>
      </trkpt>
      <trkpt lat="42.32709" lon="-1.48603">
        <ele>444.7</ele>
        <time>2013-10-27T13:46:24Z</time>
      </trkpt>
      <trkpt lat="42.32664" lon="-1.4855">
        <ele>443.8</ele>
        <time>2013-10-27T13:46:40Z</time>
      </trkpt>
      <trkpt lat="42.32536" lon="-1.48474">
        <ele>444</ele>
        <time>2013-10-27T13:47:18Z</time>
      </trkpt>
      <trkpt lat="42.32429" lon="-1.48377">
        <ele>442.5</ele>
        <time>2013-10-27T13:47:50Z</time>
      </trkpt>
      <trkpt lat="42.32158" lon="-1.48211">
        <ele>443.8</ele>
        <time>2013-10-27T13:49:51Z</time>
      </trkpt>
      <trkpt lat="42.32048" lon="-1.4809">
        <ele>446.2</ele>
        <time>2013-10-27T13:50:29Z</time>
      </trkpt>
      <trkpt lat="42.31985" lon="-1.47945">
        <ele>446.4</ele>
        <time>2013-10-27T13:51:07Z</time>
      </trkpt>
      <trkpt lat="42.31845" lon="-1.47492">
        <ele>447.8</ele>
        <time>2013-10-27T13:52:51Z</time>
      </trkpt>
      <trkpt lat="42.31689" lon="-1.47275">
        <ele>449.9</ele>
        <time>2013-10-27T13:54:08Z</time>
      </trkpt>
      <trkpt lat="42.31465" lon="-1.47088">
        <ele>452.6</ele>
        <time>2013-10-27T14:04:55Z</time>
      </trkpt>
      <trkpt lat="42.31388" lon="-1.46901">
        <ele>453.9</ele>
        <time>2013-10-27T14:05:41Z</time>
      </trkpt>
      <trkpt lat="42.31194" lon="-1.46686">
        <ele>456.4</ele>
        <time>2013-10-27T14:06:57Z</time>
      </trkpt>
      <trkpt lat="42.31059" lon="-1.46447">
        <ele>458.7</ele>
        <time>2013-10-27T14:08:01Z</time>
      </trkpt>
      <trkpt lat="42.30926" lon="-1.46302">
        <ele>460.7</ele>
        <time>2013-10-27T14:08:59Z</time>
      </trkpt>
      <trkpt lat="42.30889" lon="-1.46153">
        <ele>462.3</ele>
        <time>2013-10-27T14:10:56Z</time>
      </trkpt>
      <trkpt lat="42.30831" lon="-1.4606">
        <ele>462.6</ele>
        <time>2013-10-27T14:11:25Z</time>
      </trkpt>
      <trkpt lat="42.30795" lon="-1.45881">
        <ele>464.8</ele>
        <time>2013-10-27T14:12:22Z</time>
      </trkpt>
      <trkpt lat="42.30744" lon="-1.45814">
        <ele>466.7</ele>
        <time>2013-10-27T14:12:46Z</time>
      </trkpt>
      <trkpt lat="42.30659" lon="-1.4574">
        <ele>467.9</ele>
        <time>2013-10-27T14:13:21Z</time>
      </trkpt>
      <trkpt lat="42.30666" lon="-1.45623">
        <ele>468.9</ele>
        <time>2013-10-27T14:14:02Z</time>
      </trkpt>
      <trkpt lat="42.30641" lon="-1.45558">
        <ele>468</ele>
        <time>2013-10-27T14:14:23Z</time>
      </trkpt>
      <trkpt lat="42.30751" lon="-1.45357">
        <ele>471</ele>
        <time>2013-10-27T14:15:34Z</time>
      </trkpt>
      <trkpt lat="42.30737" lon="-1.45257">
        <ele>473.6</ele>
        <time>2013-10-27T14:16:04Z</time>
      </trkpt>
      <trkpt lat="42.30757" lon="-1.45245">
        <ele>473.3</ele>
        <time>2013-10-27T14:16:16Z</time>
      </trkpt>
      <trkpt lat="42.30815" lon="-1.45258">
        <ele>469.4</ele>
        <time>2013-10-27T14:16:36Z</time>
      </trkpt>
      <trkpt lat="42.30946" lon="-1.45307">
        <ele>455.1</ele>
        <time>2013-10-27T14:17:11Z</time>
      </trkpt>
      <trkpt lat="42.30997" lon="-1.45271">
        <ele>445.2</ele>
        <time>2013-10-27T14:17:30Z</time>
      </trkpt>
      <trkpt lat="42.31035" lon="-1.45194">
        <ele>438.5</ele>
        <time>2013-10-27T14:17:54Z</time>
      </trkpt>
      <trkpt lat="42.31085" lon="-1.44975">
        <ele>430.5</ele>
        <time>2013-10-27T14:18:59Z</time>
      </trkpt>
      <trkpt lat="42.31096" lon="-1.4474">
        <ele>428</ele>
        <time>2013-10-27T14:19:38Z</time>
      </trkpt>
      <trkpt lat="42.31142" lon="-1.44533">
        <ele>425.9</ele>
        <time>2013-10-27T14:20:41Z</time>
      </trkpt>
      <trkpt lat="42.30974" lon="-1.44451">
        <ele>426.6</ele>
        <time>2013-10-27T14:21:29Z</time>
      </trkpt>
      <trkpt lat="42.30845" lon="-1.44251">
        <ele>430.1</ele>
        <time>2013-10-27T14:22:41Z</time>
      </trkpt>
      <trkpt lat="42.308" lon="-1.44243">
        <ele>429.4</ele>
        <time>2013-10-27T14:22:53Z</time>
      </trkpt>
      <trkpt lat="42.30712" lon="-1.4418">
        <ele>428.4</ele>
        <time>2013-10-27T14:23:22Z</time>
      </trkpt>
      <trkpt lat="42.30657" lon="-1.44176">
        <ele>428.2</ele>
        <time>2013-10-27T14:23:42Z</time>
      </trkpt>
      <trkpt lat="42.30582" lon="-1.44115">
        <ele>426.6</ele>
        <time>2013-10-27T14:24:09Z</time>
      </trkpt>
      <trkpt lat="42.30555" lon="-1.43991">
        <ele>420.4</ele>
        <time>2013-10-27T14:24:42Z</time>
      </trkpt>
      <trkpt lat="42.30558" lon="-1.43932">
        <ele>416.4</ele>
        <time>2013-10-27T14:24:58Z</time>
      </trkpt>
      <trkpt lat="42.3051" lon="-1.43859">
        <ele>412.5</ele>
        <time>2013-10-27T14:25:23Z</time>
      </trkpt>
      <trkpt lat="42.30465" lon="-1.43844">
        <ele>410</ele>
        <time>2013-10-27T14:25:38Z</time>
      </trkpt>
      <trkpt lat="42.30424" lon="-1.43877">
        <ele>407.4</ele>
        <time>2013-10-27T14:26:04Z</time>
      </trkpt>
      <trkpt lat="42.30315" lon="-1.43876">
        <ele>402.8</ele>
        <time>2013-10-27T14:26:43Z</time>
      </trkpt>
      <trkpt lat="42.30262" lon="-1.43765">
        <ele>397.2</ele>
        <time>2013-10-27T14:27:09Z</time>
      </trkpt>
      <trkpt lat="42.30271" lon="-1.43644">
        <ele>393.1</ele>
        <time>2013-10-27T14:27:33Z</time>
      </trkpt>
      <trkpt lat="42.30257" lon="-1.43602">
        <ele>391.6</ele>
        <time>2013-10-27T14:27:44Z</time>
      </trkpt>
      <trkpt lat="42.30132" lon="-1.43518">
        <ele>388.9</ele>
        <time>2013-10-27T14:28:31Z</time>
      </trkpt>
      <trkpt lat="42.30087" lon="-1.43418">
        <ele>381</ele>
        <time>2013-10-27T14:29:06Z</time>
      </trkpt>
      <trkpt lat="42.30024" lon="-1.43477">
        <ele>380.5</ele>
        <time>2013-10-27T14:29:29Z</time>
      </trkpt>
      <trkpt lat="42.29999" lon="-1.43431">
        <ele>380</ele>
        <time>2013-10-27T14:29:52Z</time>
      </trkpt>
      <trkpt lat="42.30079" lon="-1.43136">
        <ele>381.5</ele>
        <time>2013-10-27T14:31:00Z</time>
      </trkpt>
      <trkpt lat="42.30139" lon="-1.42856">
        <ele>385.3</ele>
        <time>2013-10-27T14:32:06Z</time>
      </trkpt>
      <trkpt lat="42.3016" lon="-1.42679">
        <ele>387.6</ele>
        <time>2013-10-27T14:32:48Z</time>
      </trkpt>
      <trkpt lat="42.30265" lon="-1.42268">
        <ele>399.5</ele>
        <time>2013-10-27T14:36:17Z</time>
      </trkpt>
      <trkpt lat="42.30351" lon="-1.42029">
        <ele>405.6</ele>
        <time>2013-10-27T14:38:10Z</time>
      </trkpt>
      <trkpt lat="42.30378" lon="-1.41877">
        <ele>412.7</ele>
        <time>2013-10-27T14:38:56Z</time>
      </trkpt>
      <trkpt lat="42.30494" lon="-1.41711">
        <ele>412.3</ele>
        <time>2013-10-27T14:48:15Z</time>
      </trkpt>
    </trkseg>
  </trk>
</gpx>